createdAt,value
2023-05-13T00:01:56.676Z,99.90
2023-05-13T00:04:44.572Z,99.90
2023-05-13T00:07:31.063Z,99.90
2023-05-13T00:10:17.605Z,99.90
2023-05-13T00:13:04.447Z,99.90
2023-05-13T00:15:51.230Z,99.90
2023-05-13T00:18:37.864Z,99.90
2023-05-13T00:21:26.238Z,99.90
2023-05-13T00:24:12.844Z,99.90
2023-05-13T00:27:00.163Z,99.90
2023-05-13T00:29:46.709Z,99.90
2023-05-13T00:32:33.239Z,99.90
2023-05-13T00:35:20.290Z,99.90
2023-05-13T00:38:08.477Z,99.90
2023-05-13T00:40:54.815Z,99.90
2023-05-13T00:43:41.328Z,99.90
2023-05-13T00:46:33.078Z,99.90
2023-05-13T00:49:19.767Z,99.90
2023-05-13T00:52:07.101Z,99.90
2023-05-13T00:54:54.895Z,99.90
2023-05-13T00:57:41.607Z,99.90
2023-05-13T01:00:28.832Z,99.90
2023-05-13T01:03:21.055Z,99.90
2023-05-13T01:06:12.731Z,99.90
2023-05-13T01:09:08.481Z,99.90
2023-05-13T01:11:57.155Z,99.90
2023-05-13T01:14:50.487Z,99.90
2023-05-13T01:17:43.687Z,99.90
2023-05-13T01:20:32.099Z,99.90
2023-05-13T01:23:20.221Z,99.90
2023-05-13T01:26:06.891Z,99.90
2023-05-13T01:28:53.870Z,99.90
2023-05-13T01:31:42.475Z,99.90
2023-05-13T01:34:29.828Z,99.90
2023-05-13T01:37:16.468Z,99.90
2023-05-13T01:40:14.297Z,99.90
2023-05-13T01:43:07.362Z,99.90
2023-05-13T01:45:53.833Z,99.90
2023-05-13T01:48:40.180Z,99.90
2023-05-13T01:51:26.541Z,99.90
2023-05-13T01:54:12.928Z,99.90
2023-05-13T01:57:00.703Z,99.90
2023-05-13T01:59:47.602Z,99.90
2023-05-13T02:02:33.980Z,99.90
2023-05-13T02:05:20.967Z,99.90
2023-05-13T02:08:08.052Z,99.90
2023-05-13T02:10:57.776Z,99.90
2023-05-13T02:13:45.972Z,99.90
2023-05-13T02:16:32.991Z,99.90
2023-05-13T02:19:19.829Z,99.90
2023-05-13T02:22:06.376Z,99.90
2023-05-13T02:24:53.345Z,99.90
2023-05-13T02:27:39.735Z,99.90
2023-05-13T02:30:27.893Z,99.90
2023-05-13T02:33:14.648Z,99.90
2023-05-13T02:36:01.685Z,99.90
2023-05-13T02:38:48.127Z,99.90
2023-05-13T02:41:34.454Z,99.90
2023-05-13T02:44:20.944Z,99.90
2023-05-13T02:47:08.620Z,99.90
2023-05-13T02:49:56.185Z,99.90
2023-05-13T02:52:43.047Z,99.90
2023-05-13T02:55:29.771Z,99.90
2023-05-13T02:58:16.484Z,99.90
2023-05-13T03:01:02.987Z,99.90
2023-05-13T03:03:51.517Z,99.90
2023-05-13T03:06:38.305Z,99.90
2023-05-13T03:09:24.708Z,99.90
2023-05-13T03:12:11.230Z,99.90
2023-05-13T03:14:57.606Z,99.90
2023-05-13T03:17:44.544Z,99.90
2023-05-13T03:20:33.354Z,99.90
2023-05-13T03:23:20.223Z,99.90
2023-05-13T03:26:06.715Z,99.90
2023-05-13T03:28:53.174Z,99.90
2023-05-13T03:31:39.834Z,99.90
2023-05-13T03:34:26.280Z,99.90
2023-05-13T03:37:14.148Z,99.90
2023-05-13T03:40:00.818Z,99.90
2023-05-13T03:42:47.079Z,99.90
2023-05-13T03:45:33.627Z,99.90
2023-05-13T03:48:21.285Z,99.90
2023-05-13T03:51:08.028Z,99.90
2023-05-13T03:53:56.186Z,99.90
2023-05-13T03:56:43.041Z,99.90
2023-05-13T03:59:29.435Z,99.90
2023-05-13T04:02:15.778Z,99.90
2023-05-13T04:05:02.728Z,99.90
2023-05-13T04:07:49.664Z,99.90
2023-05-13T04:10:37.271Z,99.90
2023-05-13T04:13:23.694Z,99.90
2023-05-13T04:16:10.236Z,99.90
2023-05-13T04:18:56.601Z,99.90
2023-05-13T04:21:43.530Z,99.90
2023-05-13T04:24:29.873Z,99.90
2023-05-13T04:27:17.536Z,99.90
2023-05-13T04:30:04.394Z,99.90
2023-05-13T04:32:51.400Z,99.90
2023-05-13T04:35:38.233Z,99.90
2023-05-13T04:38:24.767Z,99.90
2023-05-13T04:41:11.213Z,99.90
2023-05-13T04:43:58.873Z,99.90
2023-05-13T04:46:45.589Z,99.90
2023-05-13T04:49:32.414Z,99.90
2023-05-13T04:52:19.658Z,99.90
2023-05-13T04:55:06.507Z,99.90
2023-05-13T04:57:53.216Z,99.90
2023-05-13T05:00:41.056Z,99.90
2023-05-13T05:03:27.757Z,99.90
2023-05-13T05:06:14.052Z,99.90
2023-05-13T05:09:00.791Z,99.90
2023-05-13T05:11:47.265Z,99.90
2023-05-13T05:14:34.079Z,99.90
2023-05-13T05:17:22.430Z,99.90
2023-05-13T05:20:10.145Z,99.90
2023-05-13T05:22:56.924Z,99.90
2023-05-13T05:25:43.369Z,99.90
2023-05-13T05:28:29.726Z,99.90
2023-05-13T05:31:16.337Z,99.90
2023-05-13T05:34:04.363Z,99.90
2023-05-13T05:36:50.726Z,99.90
2023-05-13T05:39:37.214Z,99.90
2023-05-13T05:42:23.691Z,99.90
2023-05-13T05:45:10.796Z,99.90
2023-05-13T05:47:57.856Z,99.90
2023-05-13T05:50:45.766Z,99.90
2023-05-13T05:53:33.015Z,99.90
2023-05-13T05:56:19.909Z,99.90
2023-05-13T05:59:06.836Z,99.90
2023-05-13T06:01:53.394Z,99.90
2023-05-13T06:04:41.814Z,99.90
2023-05-13T06:07:29.667Z,99.90
2023-05-13T06:10:16.406Z,99.90
2023-05-13T06:13:02.840Z,99.90
2023-05-13T06:15:49.154Z,99.90
2023-05-13T06:18:36.216Z,99.90
2023-05-13T06:21:22.609Z,99.90
2023-05-13T06:24:10.824Z,99.90
2023-05-13T06:26:57.507Z,99.90
2023-05-13T06:29:43.926Z,99.90
2023-05-13T06:32:30.469Z,99.90
2023-05-13T06:35:16.965Z,99.90
2023-05-13T06:38:03.700Z,99.90
2023-05-13T06:40:51.334Z,99.90
2023-05-13T06:43:38.818Z,99.90
2023-05-13T06:46:25.577Z,99.90
2023-05-13T06:49:11.815Z,99.90
2023-05-13T06:51:58.102Z,99.90
2023-05-13T06:54:44.535Z,99.90
2023-05-13T06:57:41.838Z,99.90
2023-05-13T07:00:29.566Z,99.90
2023-05-13T07:03:16.245Z,99.90
2023-05-13T07:06:03.184Z,99.90
2023-05-13T07:08:49.688Z,99.90
2023-05-13T07:11:36.216Z,99.90
2023-05-13T07:14:26.112Z,99.90
2023-05-13T07:17:12.756Z,99.90
2023-05-13T07:19:59.228Z,99.90
2023-05-13T07:22:45.706Z,99.90
2023-05-13T07:25:32.208Z,99.90
2023-05-13T07:28:19.305Z,99.90
2023-05-13T07:31:07.541Z,99.90
2023-05-13T07:33:54.557Z,99.90
2023-05-13T07:36:41.728Z,99.90
2023-05-13T07:39:28.330Z,99.90
2023-05-13T07:42:15.350Z,99.90
2023-05-13T07:45:01.837Z,99.90
2023-05-13T07:47:49.674Z,99.90
2023-05-13T07:50:36.580Z,99.90
2023-05-13T07:53:23.400Z,99.90
2023-05-13T07:56:10.134Z,99.90
2023-05-13T07:58:56.545Z,99.90
2023-05-13T08:01:43.908Z,99.90
2023-05-13T08:04:31.731Z,99.90
2023-05-13T08:07:18.299Z,99.90
2023-05-13T08:10:05.448Z,99.90
2023-05-13T08:12:57.536Z,99.90
2023-05-13T08:15:44.479Z,99.90
2023-05-13T08:18:31.341Z,99.90
2023-05-13T08:21:19.410Z,99.90
2023-05-13T08:24:06.122Z,99.90
2023-05-13T08:26:52.558Z,99.90
2023-05-13T08:29:39.363Z,99.90
2023-05-13T08:32:25.895Z,99.90
2023-05-13T08:35:12.687Z,99.90
2023-05-13T08:38:00.512Z,99.90
2023-05-13T08:40:47.672Z,99.90
2023-05-13T08:43:34.934Z,99.90
2023-05-13T08:46:25.173Z,99.90
2023-05-13T08:49:12.389Z,99.90
2023-05-13T08:51:59.120Z,99.90
2023-05-13T08:54:47.415Z,99.90
2023-05-13T08:57:34.132Z,99.90
2023-05-13T09:00:21.876Z,99.90
2023-05-13T09:03:09.303Z,99.90
2023-05-13T09:05:56.476Z,99.90
2023-05-13T09:08:43.229Z,99.90
2023-05-13T09:11:33.457Z,99.90
2023-05-13T09:14:20.798Z,99.90
2023-05-13T09:17:07.858Z,99.90
2023-05-13T09:19:54.191Z,99.90
2023-05-13T09:22:47.480Z,99.90
2023-05-13T09:25:34.606Z,99.90
2023-05-13T09:28:23.641Z,99.90
2023-05-13T09:31:10.329Z,99.90
2023-05-13T09:33:57.899Z,99.90
2023-05-13T09:36:44.956Z,99.90
2023-05-13T09:39:34.104Z,99.90
2023-05-13T09:42:21.998Z,99.90
2023-05-13T09:45:11.928Z,99.90
2023-05-13T09:47:58.408Z,99.40
2023-05-13T09:50:49.918Z,98.30
2023-05-13T09:53:36.418Z,98.10
2023-05-13T09:56:25.011Z,98.50
2023-05-13T09:59:11.843Z,99.70
2023-05-13T10:02:04.896Z,99.20
2023-05-13T10:04:51.948Z,99.80
2023-05-13T10:07:39.393Z,98.70
2023-05-13T10:10:26.100Z,99.20
2023-05-13T10:13:15.846Z,98.00
2023-05-13T10:16:02.349Z,98.10
2023-05-13T10:18:50.277Z,97.50
2023-05-13T10:21:38.128Z,98.70
2023-05-13T10:24:27.084Z,97.90
2023-05-13T10:27:14.416Z,97.80
2023-05-13T10:30:03.656Z,97.30
2023-05-13T10:32:51.807Z,97.20
2023-05-13T10:35:44.377Z,95.90
2023-05-13T10:38:48.183Z,96.80
2023-05-13T10:42:04.464Z,97.00
2023-05-13T10:44:55.548Z,96.20
2023-05-13T10:47:42.001Z,97.90
2023-05-13T10:50:29.315Z,97.80
2023-05-13T10:53:22.091Z,96.90
2023-05-13T10:56:08.786Z,97.00
2023-05-13T10:58:59.964Z,97.20
2023-05-13T11:01:47.300Z,96.20
2023-05-13T11:04:33.936Z,95.30
2023-05-13T11:07:20.287Z,95.70
2023-05-13T11:10:26.210Z,93.80
2023-05-13T11:13:25.560Z,95.10
2023-05-13T11:16:14.572Z,94.90
2023-05-13T11:19:03.644Z,95.10
2023-05-13T11:21:53.002Z,92.80
2023-05-13T11:24:40.371Z,94.10
2023-05-13T11:27:28.659Z,93.30
2023-05-13T11:30:24.093Z,91.70
2023-05-13T11:33:12.410Z,93.10
2023-05-13T11:35:59.586Z,92.80
2023-05-13T11:38:45.885Z,92.80
2023-05-13T11:41:33.429Z,91.70
2023-05-13T11:44:22.660Z,93.30
2023-05-13T11:47:09.290Z,92.40
2023-05-13T11:49:55.972Z,91.40
2023-05-13T11:52:42.967Z,92.10
2023-05-13T11:55:31.162Z,92.30
2023-05-13T11:58:17.820Z,92.60
2023-05-13T12:01:05.869Z,91.30
2023-05-13T12:04:02.509Z,91.40
2023-05-13T12:06:49.397Z,91.30
2023-05-13T12:09:36.228Z,90.50
2023-05-13T12:12:22.994Z,91.30
2023-05-13T12:15:11.947Z,91.50
2023-05-13T12:18:00.300Z,91.50
2023-05-13T12:20:47.104Z,88.80
2023-05-13T12:23:40.744Z,90.30
2023-05-13T12:26:27.567Z,87.90
2023-05-13T12:29:14.636Z,90.10
2023-05-13T12:32:06.048Z,90.10
2023-05-13T12:34:54.304Z,89.70
2023-05-13T12:37:41.366Z,87.70
2023-05-13T12:40:28.252Z,86.20
2023-05-13T12:43:15.491Z,87.30
2023-05-13T12:46:01.895Z,89.30
2023-05-13T12:48:48.321Z,84.10
2023-05-13T12:51:36.112Z,84.20
2023-05-13T12:54:22.718Z,84.00
2023-05-13T12:57:10.110Z,83.80
2023-05-13T12:59:56.562Z,85.20
2023-05-13T13:02:43.243Z,85.30
2023-05-13T13:05:30.174Z,83.60
2023-05-13T13:08:18.131Z,84.50
2023-05-13T13:11:05.257Z,85.30
2023-05-13T13:13:51.793Z,84.00
2023-05-13T13:16:38.229Z,83.80
2023-05-13T13:19:24.790Z,83.00
2023-05-13T13:22:11.677Z,80.90
2023-05-13T13:24:59.805Z,82.80
2023-05-13T13:27:46.303Z,81.60
2023-05-13T13:30:32.722Z,82.10
2023-05-13T13:33:20.909Z,84.60
2023-05-13T13:36:08.172Z,82.50
2023-05-13T13:38:54.831Z,84.00
2023-05-13T13:41:43.287Z,81.40
2023-05-13T13:44:30.017Z,80.20
2023-05-13T13:47:16.673Z,82.60
2023-05-13T13:50:03.615Z,83.40
2023-05-13T13:52:52.352Z,79.80
2023-05-13T13:55:38.948Z,80.60
2023-05-13T13:58:26.672Z,77.80
2023-05-13T14:01:13.180Z,77.70
2023-05-13T14:04:12.015Z,77.50
2023-05-13T14:06:58.684Z,77.40
2023-05-13T14:09:45.145Z,74.60
2023-05-13T14:12:31.610Z,77.20
2023-05-13T14:15:19.438Z,76.40
2023-05-13T14:18:06.708Z,75.80
2023-05-13T14:20:53.519Z,77.60
2023-05-13T14:23:42.318Z,80.80
2023-05-13T14:26:29.046Z,77.60
2023-05-13T14:29:15.990Z,78.00
2023-05-13T14:32:04.255Z,76.70
2023-05-13T14:34:50.632Z,75.00
2023-05-13T14:37:37.148Z,74.70
2023-05-13T14:40:23.970Z,79.00
2023-05-13T14:43:10.521Z,73.80
2023-05-13T14:45:57.164Z,73.30
2023-05-13T14:48:45.163Z,67.80
2023-05-13T14:51:31.831Z,73.80
2023-05-13T14:54:18.678Z,71.20
2023-05-13T14:57:06.613Z,71.90
2023-05-13T14:59:53.057Z,73.50
2023-05-13T15:02:39.814Z,71.40
2023-05-13T15:05:27.902Z,70.10
2023-05-13T15:08:14.696Z,72.00
2023-05-13T15:11:01.374Z,72.90
2023-05-13T15:13:48.200Z,71.10
2023-05-13T15:16:34.804Z,70.70
2023-05-13T15:19:21.800Z,69.00
2023-05-13T15:22:09.507Z,67.80
2023-05-13T15:24:56.007Z,67.90
2023-05-13T15:27:43.010Z,65.10
2023-05-13T15:30:30.945Z,69.90
2023-05-13T15:33:17.936Z,65.70
2023-05-13T15:36:05.749Z,66.70
2023-05-13T15:38:53.972Z,70.10
2023-05-13T15:41:41.380Z,67.20
2023-05-13T15:44:28.012Z,68.80
2023-05-13T15:47:14.463Z,64.10
2023-05-13T15:50:01.483Z,63.30
2023-05-13T15:52:48.444Z,61.90
2023-05-13T15:55:37.423Z,62.20
2023-05-13T15:58:23.819Z,62.40
2023-05-13T16:01:11.036Z,61.40
2023-05-13T16:03:57.750Z,62.60
2023-05-13T16:06:44.144Z,62.40
2023-05-13T16:09:30.594Z,62.70
2023-05-13T16:12:18.475Z,60.40
2023-05-13T16:15:05.607Z,62.00
2023-05-13T16:17:52.393Z,61.00
2023-05-13T16:20:39.387Z,59.30
2023-05-13T16:23:25.912Z,60.30
2023-05-13T16:26:12.308Z,57.40
2023-05-13T16:29:00.050Z,59.70
2023-05-13T16:31:46.535Z,58.10
2023-05-13T16:34:33.341Z,58.00
2023-05-13T16:37:19.983Z,57.70
2023-05-13T16:40:07.821Z,59.20
2023-05-13T16:42:55.042Z,58.80
2023-05-13T16:45:45.428Z,58.30
2023-05-13T16:48:32.293Z,58.70
2023-05-13T16:51:18.602Z,58.00
2023-05-13T16:54:04.982Z,58.40
2023-05-13T16:56:51.964Z,58.00
2023-05-13T16:59:38.315Z,58.00
2023-05-13T17:02:26.514Z,57.00
2023-05-13T17:05:13.536Z,58.10
2023-05-13T17:08:00.183Z,58.30
2023-05-13T17:10:47.094Z,57.30
2023-05-13T17:13:33.769Z,57.00
2023-05-13T17:16:20.890Z,56.60
2023-05-13T17:19:09.081Z,57.10
2023-05-13T17:21:55.834Z,57.00
2023-05-13T17:24:42.306Z,57.30
2023-05-13T17:27:28.689Z,56.20
2023-05-13T17:30:16.204Z,57.00
2023-05-13T17:33:03.049Z,56.90
2023-05-13T17:35:52.464Z,55.80
2023-05-13T17:38:39.085Z,56.80
2023-05-13T17:41:25.913Z,56.60
2023-05-13T17:44:12.985Z,57.40
2023-05-13T17:46:59.293Z,57.30
2023-05-13T17:49:45.626Z,58.10
2023-05-13T17:52:33.515Z,58.10
2023-05-13T17:55:20.175Z,58.80
2023-05-13T17:58:06.610Z,58.50
2023-05-13T18:00:53.325Z,59.00
2023-05-13T18:03:40.201Z,59.30
2023-05-13T18:06:26.663Z,58.50
2023-05-13T18:09:14.430Z,59.60
2023-05-13T18:12:01.173Z,60.00
2023-05-13T18:14:48.091Z,59.80
2023-05-13T18:17:34.595Z,59.80
2023-05-13T18:20:22.531Z,60.10
2023-05-13T18:23:09.205Z,61.00
2023-05-13T18:25:57.167Z,62.80
2023-05-13T18:28:44.897Z,62.00
2023-05-13T18:31:34.770Z,62.90
2023-05-13T18:34:21.594Z,64.10
2023-05-13T18:37:08.031Z,64.10
2023-05-13T18:39:54.268Z,65.00
2023-05-13T18:42:42.091Z,66.10
2023-05-13T18:45:29.023Z,66.20
2023-05-13T18:48:15.926Z,65.90
2023-05-13T18:51:02.268Z,67.70
2023-05-13T18:53:48.907Z,67.60
2023-05-13T18:56:36.206Z,68.50
2023-05-13T18:59:24.274Z,70.00
2023-05-13T19:02:11.475Z,70.80
2023-05-13T19:04:57.921Z,70.90
2023-05-13T19:07:44.174Z,72.20
2023-05-13T19:10:30.612Z,71.20
2023-05-13T19:13:19.818Z,74.60
2023-05-13T19:16:07.854Z,73.60
2023-05-13T19:18:54.543Z,74.50
2023-05-13T19:21:41.323Z,76.40
2023-05-13T19:24:27.717Z,77.90
2023-05-13T19:27:14.324Z,78.30
2023-05-13T19:30:01.438Z,80.90
2023-05-13T19:32:50.123Z,79.00
2023-05-13T19:35:37.151Z,81.70
2023-05-13T19:38:23.498Z,80.20
2023-05-13T19:41:09.930Z,81.80
2023-05-13T19:43:56.745Z,84.40
2023-05-13T19:46:43.596Z,82.90
2023-05-13T19:49:31.616Z,85.20
2023-05-13T19:52:18.421Z,84.90
2023-05-13T19:55:05.481Z,84.60
2023-05-13T19:57:52.190Z,86.10
2023-05-13T20:00:38.674Z,86.00
2023-05-13T20:03:25.548Z,85.70
2023-05-13T20:06:13.451Z,87.40
2023-05-13T20:09:00.843Z,87.20
2023-05-13T20:11:47.238Z,88.40
2023-05-13T20:14:44.692Z,87.50
2023-05-13T20:17:31.894Z,87.50
2023-05-13T20:20:19.152Z,86.90
2023-05-13T20:23:06.990Z,86.20
2023-05-13T20:25:53.983Z,87.00
2023-05-13T20:28:40.768Z,87.60
2023-05-13T20:31:27.392Z,89.20
2023-05-13T20:34:13.801Z,90.00
2023-05-13T20:37:00.161Z,87.10
2023-05-13T20:39:48.165Z,89.40
2023-05-13T20:42:34.977Z,89.30
2023-05-13T20:45:21.474Z,90.40
2023-05-13T20:48:09.012Z,89.10
2023-05-13T20:51:00.004Z,89.60
2023-05-13T20:53:47.352Z,90.10
2023-05-13T20:56:35.251Z,90.80
2023-05-13T20:59:21.555Z,92.00
2023-05-13T21:02:08.537Z,91.90
2023-05-13T21:04:54.857Z,91.90
2023-05-13T21:07:41.207Z,91.30
2023-05-13T21:10:27.763Z,91.50
2023-05-13T21:13:16.246Z,92.10
2023-05-13T21:16:04.906Z,92.10
2023-05-13T21:18:51.538Z,92.50
2023-05-13T21:21:38.487Z,92.40
2023-05-13T21:24:24.810Z,92.80
2023-05-13T21:27:11.151Z,93.40
2023-05-13T21:29:59.009Z,93.60
2023-05-13T21:32:45.455Z,93.80
2023-05-13T21:35:32.408Z,93.90
2023-05-13T21:38:19.001Z,94.30
2023-05-13T21:41:05.484Z,94.80
2023-05-13T21:43:51.989Z,94.60
2023-05-13T21:46:39.891Z,94.70
2023-05-13T21:49:26.560Z,95.30
2023-05-13T21:52:13.095Z,95.50
2023-05-13T21:55:00.205Z,95.50
2023-05-13T21:57:46.656Z,95.80
2023-05-13T22:00:33.172Z,95.70
2023-05-13T22:03:21.309Z,95.90
2023-05-13T22:06:08.114Z,96.30
2023-05-13T22:08:54.481Z,96.10
2023-05-13T22:11:41.043Z,96.20
2023-05-13T22:14:27.428Z,96.60
2023-05-13T22:17:13.980Z,96.30
2023-05-13T22:20:02.324Z,96.10
2023-05-13T22:22:48.866Z,96.80
2023-05-13T22:25:43.809Z,97.20
2023-05-13T22:28:31.219Z,98.20
2023-05-13T22:31:18.283Z,98.20
2023-05-13T22:34:05.078Z,99.00
2023-05-13T22:36:52.817Z,99.20
2023-05-13T22:39:39.545Z,99.30
2023-05-13T22:42:25.879Z,99.60
2023-05-13T22:45:13.162Z,99.60
2023-05-13T22:47:59.571Z,99.80
2023-05-13T22:50:46.433Z,99.90
2023-05-13T22:53:34.333Z,99.90
2023-05-13T22:56:21.916Z,99.90
2023-05-13T22:59:08.584Z,99.90
2023-05-13T23:01:55.202Z,99.90
2023-05-13T23:04:41.830Z,99.90
2023-05-13T23:07:28.335Z,99.90
2023-05-13T23:10:16.152Z,99.90
2023-05-13T23:13:05.654Z,99.90
2023-05-13T23:15:52.239Z,99.90
2023-05-13T23:18:38.558Z,99.90
2023-05-13T23:21:26.070Z,99.90
2023-05-13T23:24:12.530Z,99.90
2023-05-13T23:27:00.192Z,99.90
2023-05-13T23:29:46.827Z,99.90
2023-05-13T23:32:33.234Z,99.90
2023-05-13T23:35:19.690Z,99.90
2023-05-13T23:38:06.384Z,99.90
2023-05-13T23:40:53.962Z,99.90
2023-05-13T23:43:41.951Z,99.90
2023-05-13T23:46:28.668Z,99.90
2023-05-13T23:49:15.127Z,99.90
2023-05-13T23:52:01.449Z,99.90
2023-05-13T23:54:47.833Z,99.90
2023-05-13T23:57:34.326Z,99.90
